sensor_id;sensor_type;location;lat;lon;timestamp;pressure;altitude;pressure_sealevel;temperature;humidity
56042;BME280;48756;41.374;2.066;2023-05-21T00:02:14;100638.25;;;17.31;67.53
56042;BME280;48756;41.374;2.066;2023-05-21T00:04:44;100638.13;;;17.34;65.49
56042;BME280;48756;41.374;2.066;2023-05-21T00:07:10;100638.88;;;17.14;67.24
56042;BME280;48756;41.374;2.066;2023-05-21T00:09:36;100635.94;;;17.00;68.21
56042;BME280;48756;41.374;2.066;2023-05-21T00:12:03;100640.59;;;16.92;68.18
56042;BME280;48756;41.374;2.066;2023-05-21T00:14:29;100638.19;;;17.09;68.21
56042;BME280;48756;41.374;2.066;2023-05-21T00:16:54;100635.22;;;17.18;68.79
56042;BME280;48756;41.374;2.066;2023-05-21T00:19:20;100636.84;;;17.22;69.62
56042;BME280;48756;41.374;2.066;2023-05-21T00:21:45;100632.31;;;17.26;69.01
56042;BME280;48756;41.374;2.066;2023-05-21T00:24:11;100640.47;;;17.18;68.56
56042;BME280;48756;41.374;2.066;2023-05-21T00:26:36;100630.78;;;17.20;69.27
56042;BME280;48756;41.374;2.066;2023-05-21T00:29:02;100627.16;;;17.23;69.04
56042;BME280;48756;41.374;2.066;2023-05-21T00:31:27;100625.47;;;16.98;69.45
56042;BME280;48756;41.374;2.066;2023-05-21T00:33:52;100624.41;;;17.02;69.10
56042;BME280;48756;41.374;2.066;2023-05-21T00:36:18;100618.91;;;17.08;68.16
56042;BME280;48756;41.374;2.066;2023-05-21T00:38:47;100621.44;;;17.11;68.91
56042;BME280;48756;41.374;2.066;2023-05-21T00:41:14;100617.50;;;17.00;69.16
56042;BME280;48756;41.374;2.066;2023-05-21T00:43:39;100623.16;;;16.89;70.18
56042;BME280;48756;41.374;2.066;2023-05-21T00:46:05;100623.81;;;16.94;70.45
56042;BME280;48756;41.374;2.066;2023-05-21T00:48:31;100616.00;;;16.93;70.76
56042;BME280;48756;41.374;2.066;2023-05-21T00:50:56;100618.91;;;16.85;70.95
56042;BME280;48756;41.374;2.066;2023-05-21T00:53:22;100615.31;;;16.88;71.79
56042;BME280;48756;41.374;2.066;2023-05-21T00:55:48;100613.47;;;16.90;70.71
56042;BME280;48756;41.374;2.066;2023-05-21T00:58:14;100609.53;;;16.78;72.10
56042;BME280;48756;41.374;2.066;2023-05-21T01:00:42;100609.31;;;16.84;72.96
56042;BME280;48756;41.374;2.066;2023-05-21T01:03:07;100614.03;;;16.74;72.41
56042;BME280;48756;41.374;2.066;2023-05-21T01:05:33;100610.41;;;16.53;72.65
56042;BME280;48756;41.374;2.066;2023-05-21T01:07:58;100606.75;;;16.58;72.37
56042;BME280;48756;41.374;2.066;2023-05-21T01:10:24;100611.81;;;16.39;73.41
56042;BME280;48756;41.374;2.066;2023-05-21T01:12:51;100612.66;;;16.39;73.90
56042;BME280;48756;41.374;2.066;2023-05-21T01:15:16;100603.84;;;16.40;74.70
56042;BME280;48756;41.374;2.066;2023-05-21T01:17:42;100606.19;;;16.48;73.88
56042;BME280;48756;41.374;2.066;2023-05-21T01:20:10;100608.69;;;16.52;74.19
56042;BME280;48756;41.374;2.066;2023-05-21T01:22:36;100607.13;;;16.47;75.16
56042;BME280;48756;41.374;2.066;2023-05-21T01:25:03;100611.22;;;16.56;73.82
56042;BME280;48756;41.374;2.066;2023-05-21T01:27:29;100606.22;;;16.23;75.58
56042;BME280;48756;41.374;2.066;2023-05-21T01:29:54;100600.72;;;16.29;76.68
56042;BME280;48756;41.374;2.066;2023-05-21T01:35:07;100607.97;;;16.47;75.22
56042;BME280;48756;41.374;2.066;2023-05-21T01:37:35;100609.00;;;16.43;74.74
56042;BME280;48756;41.374;2.066;2023-05-21T01:40:09;100609.13;;;16.40;75.91
56042;BME280;48756;41.374;2.066;2023-05-21T01:42:35;100602.81;;;16.44;74.84
56042;BME280;48756;41.374;2.066;2023-05-21T01:45:03;100599.72;;;16.33;75.30
56042;BME280;48756;41.374;2.066;2023-05-21T01:47:31;100595.91;;;16.42;74.61
56042;BME280;48756;41.374;2.066;2023-05-21T01:49:57;100597.06;;;16.35;75.57
56042;BME280;48756;41.374;2.066;2023-05-21T01:52:23;100599.69;;;16.35;75.60
56042;BME280;48756;41.374;2.066;2023-05-21T01:54:48;100602.38;;;16.33;76.64
56042;BME280;48756;41.374;2.066;2023-05-21T01:57:15;100599.78;;;16.32;76.22
56042;BME280;48756;41.374;2.066;2023-05-21T01:59:41;100589.41;;;16.27;76.54
56042;BME280;48756;41.374;2.066;2023-05-21T02:02:08;100591.69;;;16.13;76.79
56042;BME280;48756;41.374;2.066;2023-05-21T02:04:33;100594.03;;;15.96;77.71
56042;BME280;48756;41.374;2.066;2023-05-21T02:06:59;100587.50;;;15.81;78.50
56042;BME280;48756;41.374;2.066;2023-05-21T02:09:24;100578.47;;;15.89;76.24
56042;BME280;48756;41.374;2.066;2023-05-21T02:11:49;100571.09;;;15.74;77.34
56042;BME280;48756;41.374;2.066;2023-05-21T02:14:15;100573.00;;;15.96;77.61
56042;BME280;48756;41.374;2.066;2023-05-21T02:16:40;100570.19;;;16.00;77.03
56042;BME280;48756;41.374;2.066;2023-05-21T02:19:06;100581.19;;;15.86;76.65
56042;BME280;48756;41.374;2.066;2023-05-21T02:21:34;100579.16;;;15.95;77.53
56042;BME280;48756;41.374;2.066;2023-05-21T02:23:59;100574.06;;;15.90;77.68
56042;BME280;48756;41.374;2.066;2023-05-21T02:26:25;100572.47;;;15.86;76.93
56042;BME280;48756;41.374;2.066;2023-05-21T02:28:51;100569.59;;;15.67;79.10
56042;BME280;48756;41.374;2.066;2023-05-21T02:31:16;100571.50;;;15.62;79.11
56042;BME280;48756;41.374;2.066;2023-05-21T02:33:42;100576.50;;;15.42;80.23
56042;BME280;48756;41.374;2.066;2023-05-21T02:36:07;100570.88;;;15.26;80.63
56042;BME280;48756;41.374;2.066;2023-05-21T02:38:37;100579.75;;;14.94;82.92
56042;BME280;48756;41.374;2.066;2023-05-21T02:41:05;100573.50;;;14.98;83.81
56042;BME280;48756;41.374;2.066;2023-05-21T02:43:30;100574.81;;;15.11;83.49
56042;BME280;48756;41.374;2.066;2023-05-21T02:45:56;100578.34;;;15.10;84.57
56042;BME280;48756;41.374;2.066;2023-05-21T02:48:21;100575.69;;;15.12;84.29
56042;BME280;48756;41.374;2.066;2023-05-21T02:50:46;100568.84;;;15.06;83.99
56042;BME280;48756;41.374;2.066;2023-05-21T02:53:12;100564.00;;;14.92;85.15
56042;BME280;48756;41.374;2.066;2023-05-21T02:55:37;100563.19;;;14.90;85.51
56042;BME280;48756;41.374;2.066;2023-05-21T02:58:03;100568.75;;;15.09;84.36
56042;BME280;48756;41.374;2.066;2023-05-21T03:00:28;100567.28;;;15.00;83.84
56042;BME280;48756;41.374;2.066;2023-05-21T03:02:54;100561.44;;;14.91;84.59
56042;BME280;48756;41.374;2.066;2023-05-21T03:05:20;100559.63;;;14.93;84.24
56042;BME280;48756;41.374;2.066;2023-05-21T03:07:45;100557.00;;;14.93;84.61
56042;BME280;48756;41.374;2.066;2023-05-21T03:10:10;100562.00;;;15.02;83.90
56042;BME280;48756;41.374;2.066;2023-05-21T03:12:36;100561.72;;;14.82;84.93
56042;BME280;48756;41.374;2.066;2023-05-21T03:15:02;100562.59;;;14.82;85.20
56042;BME280;48756;41.374;2.066;2023-05-21T03:17:27;100566.06;;;14.83;84.61
56042;BME280;48756;41.374;2.066;2023-05-21T03:19:53;100561.53;;;14.58;86.44
56042;BME280;48756;41.374;2.066;2023-05-21T03:22:18;100561.81;;;14.49;86.72
56042;BME280;48756;41.374;2.066;2023-05-21T03:24:44;100557.44;;;14.50;87.56
56042;BME280;48756;41.374;2.066;2023-05-21T03:27:10;100562.91;;;14.39;87.22
56042;BME280;48756;41.374;2.066;2023-05-21T03:29:35;100558.91;;;14.58;87.16
56042;BME280;48756;41.374;2.066;2023-05-21T03:32:01;100552.94;;;14.53;87.08
56042;BME280;48756;41.374;2.066;2023-05-21T03:34:27;100553.97;;;14.48;86.51
56042;BME280;48756;41.374;2.066;2023-05-21T03:36:52;100553.00;;;14.52;86.56
56042;BME280;48756;41.374;2.066;2023-05-21T03:39:18;100553.19;;;14.43;87.11
56042;BME280;48756;41.374;2.066;2023-05-21T03:41:43;100552.09;;;14.53;86.60
56042;BME280;48756;41.374;2.066;2023-05-21T03:44:09;100553.72;;;14.57;86.03
56042;BME280;48756;41.374;2.066;2023-05-21T03:46:34;100552.19;;;14.48;85.58
56042;BME280;48756;41.374;2.066;2023-05-21T03:49:00;100552.28;;;14.45;86.27
56042;BME280;48756;41.374;2.066;2023-05-21T03:51:25;100551.84;;;14.60;85.20
56042;BME280;48756;41.374;2.066;2023-05-21T03:53:51;100551.56;;;14.69;84.67
56042;BME280;48756;41.374;2.066;2023-05-21T03:56:16;100552.84;;;14.56;84.74
56042;BME280;48756;41.374;2.066;2023-05-21T03:58:42;100558.25;;;14.52;85.08
56042;BME280;48756;41.374;2.066;2023-05-21T04:01:07;100554.47;;;14.60;84.70
56042;BME280;48756;41.374;2.066;2023-05-21T04:03:33;100558.53;;;14.72;83.71
56042;BME280;48756;41.374;2.066;2023-05-21T04:06:00;100560.69;;;14.87;82.50
56042;BME280;48756;41.374;2.066;2023-05-21T04:08:26;100558.69;;;14.95;82.19
56042;BME280;48756;41.374;2.066;2023-05-21T04:10:51;100565.13;;;14.85;82.37
56042;BME280;48756;41.374;2.066;2023-05-21T04:13:17;100557.72;;;14.68;83.91
56042;BME280;48756;41.374;2.066;2023-05-21T04:15:45;100559.28;;;14.76;83.72
56042;BME280;48756;41.374;2.066;2023-05-21T04:18:11;100558.38;;;14.77;83.53
56042;BME280;48756;41.374;2.066;2023-05-21T04:20:37;100557.09;;;14.60;84.36
56042;BME280;48756;41.374;2.066;2023-05-21T04:23:03;100560.72;;;14.56;84.08
56042;BME280;48756;41.374;2.066;2023-05-21T04:25:28;100562.25;;;14.63;83.84
56042;BME280;48756;41.374;2.066;2023-05-21T04:27:54;100562.66;;;14.50;84.20
56042;BME280;48756;41.374;2.066;2023-05-21T04:30:19;100556.72;;;14.43;85.19
56042;BME280;48756;41.374;2.066;2023-05-21T04:32:44;100563.06;;;14.34;84.53
56042;BME280;48756;41.374;2.066;2023-05-21T04:35:12;100567.25;;;14.40;85.11
56042;BME280;48756;41.374;2.066;2023-05-21T04:37:39;100558.34;;;14.47;84.99
56042;BME280;48756;41.374;2.066;2023-05-21T04:40:08;100563.09;;;14.33;85.47
56042;BME280;48756;41.374;2.066;2023-05-21T04:42:33;100571.31;;;14.19;85.69
56042;BME280;48756;41.374;2.066;2023-05-21T04:44:59;100560.19;;;14.11;86.40
56042;BME280;48756;41.374;2.066;2023-05-21T04:47:24;100564.97;;;13.95;87.22
56042;BME280;48756;41.374;2.066;2023-05-21T04:49:50;100569.47;;;13.90;87.69
56042;BME280;48756;41.374;2.066;2023-05-21T04:52:15;100564.53;;;13.78;87.72
56042;BME280;48756;41.374;2.066;2023-05-21T04:54:41;100565.44;;;13.77;88.01
56042;BME280;48756;41.374;2.066;2023-05-21T04:57:07;100562.81;;;13.77;87.71
56042;BME280;48756;41.374;2.066;2023-05-21T04:59:32;100561.75;;;13.86;87.58
56042;BME280;48756;41.374;2.066;2023-05-21T05:01:58;100557.44;;;13.83;87.67
56042;BME280;48756;41.374;2.066;2023-05-21T05:04:23;100567.31;;;13.72;87.71
56042;BME280;48756;41.374;2.066;2023-05-21T05:06:48;100564.53;;;13.78;87.54
56042;BME280;48756;41.374;2.066;2023-05-21T05:09:15;100566.81;;;13.92;86.65
56042;BME280;48756;41.374;2.066;2023-05-21T05:11:41;100561.88;;;13.79;87.89
56042;BME280;48756;41.374;2.066;2023-05-21T05:14:06;100569.69;;;13.83;87.41
56042;BME280;48756;41.374;2.066;2023-05-21T05:16:32;100569.00;;;13.74;87.09
56042;BME280;48756;41.374;2.066;2023-05-21T05:18:58;100560.41;;;13.69;87.04
56042;BME280;48756;41.374;2.066;2023-05-21T05:21:23;100557.50;;;13.80;86.92
56042;BME280;48756;41.374;2.066;2023-05-21T05:23:49;100561.00;;;13.81;87.28
56042;BME280;48756;41.374;2.066;2023-05-21T05:26:14;100554.66;;;13.89;86.58
56042;BME280;48756;41.374;2.066;2023-05-21T05:28:40;100560.03;;;13.85;86.44
56042;BME280;48756;41.374;2.066;2023-05-21T05:31:05;100557.03;;;13.98;86.33
56042;BME280;48756;41.374;2.066;2023-05-21T05:33:31;100553.59;;;13.96;86.13
56042;BME280;48756;41.374;2.066;2023-05-21T05:35:56;100563.41;;;14.21;84.67
56042;BME280;48756;41.374;2.066;2023-05-21T05:38:22;100569.78;;;14.12;84.35
56042;BME280;48756;41.374;2.066;2023-05-21T05:40:47;100567.34;;;14.37;83.61
56042;BME280;48756;41.374;2.066;2023-05-21T05:43:13;100560.22;;;14.42;83.78
56042;BME280;48756;41.374;2.066;2023-05-21T05:45:38;100561.97;;;14.74;82.32
56042;BME280;48756;41.374;2.066;2023-05-21T05:48:04;100568.91;;;14.44;82.24
56042;BME280;48756;41.374;2.066;2023-05-21T05:50:29;100566.31;;;14.75;81.08
56042;BME280;48756;41.374;2.066;2023-05-21T05:52:55;100571.84;;;14.64;81.28
56042;BME280;48756;41.374;2.066;2023-05-21T05:55:20;100570.06;;;14.65;81.53
56042;BME280;48756;41.374;2.066;2023-05-21T05:57:46;100570.41;;;14.54;81.35
56042;BME280;48756;41.374;2.066;2023-05-21T06:00:11;100566.50;;;14.67;80.83
56042;BME280;48756;41.374;2.066;2023-05-21T06:02:37;100563.94;;;14.66;81.21
56042;BME280;48756;41.374;2.066;2023-05-21T06:05:05;100566.22;;;14.78;81.13
56042;BME280;48756;41.374;2.066;2023-05-21T06:07:31;100565.13;;;14.85;80.04
56042;BME280;48756;41.374;2.066;2023-05-21T06:09:56;100574.50;;;14.94;79.62
56042;BME280;48756;41.374;2.066;2023-05-21T06:12:22;100568.03;;;15.32;78.69
56042;BME280;48756;41.374;2.066;2023-05-21T06:14:47;100564.75;;;15.53;77.71
56042;BME280;48756;41.374;2.066;2023-05-21T06:17:13;100565.72;;;15.77;76.32
56042;BME280;48756;41.374;2.066;2023-05-21T06:19:38;100568.97;;;15.57;76.68
56042;BME280;48756;41.374;2.066;2023-05-21T06:22:04;100571.13;;;15.73;76.28
56042;BME280;48756;41.374;2.066;2023-05-21T06:24:29;100573.59;;;15.77;75.94
56042;BME280;48756;41.374;2.066;2023-05-21T06:26:55;100573.97;;;15.67;75.91
56042;BME280;48756;41.374;2.066;2023-05-21T06:29:20;100567.03;;;15.90;76.04
56042;BME280;48756;41.374;2.066;2023-05-21T06:31:45;100562.09;;;16.06;75.32
56042;BME280;48756;41.374;2.066;2023-05-21T06:34:11;100556.47;;;16.17;74.28
56042;BME280;48756;41.374;2.066;2023-05-21T06:36:36;100559.69;;;16.25;74.06
56042;BME280;48756;41.374;2.066;2023-05-21T06:39:02;100557.28;;;16.19;73.13
56042;BME280;48756;41.374;2.066;2023-05-21T06:41:27;100562.19;;;16.28;73.68
56042;BME280;48756;41.374;2.066;2023-05-21T06:43:53;100558.34;;;16.38;73.39
56042;BME280;48756;41.374;2.066;2023-05-21T06:46:18;100552.81;;;16.46;73.11
56042;BME280;48756;41.374;2.066;2023-05-21T06:48:44;100566.28;;;16.37;73.52
56042;BME280;48756;41.374;2.066;2023-05-21T06:51:10;100556.34;;;16.45;72.93
56042;BME280;48756;41.374;2.066;2023-05-21T06:53:35;100563.47;;;16.66;72.13
56042;BME280;48756;41.374;2.066;2023-05-21T06:56:01;100564.09;;;16.73;72.10
56042;BME280;48756;41.374;2.066;2023-05-21T06:58:26;100568.28;;;17.02;71.30
56042;BME280;48756;41.374;2.066;2023-05-21T07:00:55;100576.91;;;17.05;69.64
56042;BME280;48756;41.374;2.066;2023-05-21T07:03:21;100573.66;;;17.42;69.38
56042;BME280;48756;41.374;2.066;2023-05-21T07:05:46;100569.97;;;17.26;70.01
56042;BME280;48756;41.374;2.066;2023-05-21T07:08:12;100572.53;;;17.28;69.46
56042;BME280;48756;41.374;2.066;2023-05-21T07:10:37;100568.72;;;17.35;68.49
56042;BME280;48756;41.374;2.066;2023-05-21T07:13:02;100570.38;;;17.59;68.07
56042;BME280;48756;41.374;2.066;2023-05-21T07:15:28;100566.16;;;17.55;69.06
56042;BME280;48756;41.374;2.066;2023-05-21T07:17:53;100572.56;;;17.92;66.76
56042;BME280;48756;41.374;2.066;2023-05-21T07:20:19;100568.34;;;18.08;66.24
56042;BME280;48756;41.374;2.066;2023-05-21T07:22:44;100571.75;;;18.10;66.54
56042;BME280;48756;41.374;2.066;2023-05-21T07:25:10;100565.47;;;18.33;64.97
56042;BME280;48756;41.374;2.066;2023-05-21T07:27:35;100575.16;;;18.53;62.48
56042;BME280;48756;41.374;2.066;2023-05-21T07:30:01;100570.56;;;18.77;62.50
56042;BME280;48756;41.374;2.066;2023-05-21T07:32:26;100569.66;;;18.78;61.87
56042;BME280;48756;41.374;2.066;2023-05-21T07:34:53;100580.94;;;18.81;60.41
56042;BME280;48756;41.374;2.066;2023-05-21T07:37:19;100578.28;;;18.62;61.57
56042;BME280;48756;41.374;2.066;2023-05-21T07:39:45;100580.38;;;19.12;61.49
56042;BME280;48756;41.374;2.066;2023-05-21T07:42:10;100585.66;;;19.12;60.52
56042;BME280;48756;41.374;2.066;2023-05-21T07:44:36;100582.16;;;19.31;58.37
56042;BME280;48756;41.374;2.066;2023-05-21T07:47:01;100578.28;;;19.19;59.50
56042;BME280;48756;41.374;2.066;2023-05-21T07:49:27;100579.59;;;19.10;60.25
56042;BME280;48756;41.374;2.066;2023-05-21T07:51:52;100577.94;;;19.08;60.48
56042;BME280;48756;41.374;2.066;2023-05-21T07:54:18;100580.75;;;19.05;61.16
56042;BME280;48756;41.374;2.066;2023-05-21T07:56:43;100581.00;;;19.55;59.08
56042;BME280;48756;41.374;2.066;2023-05-21T07:59:09;100581.59;;;19.96;57.54
56042;BME280;48756;41.374;2.066;2023-05-21T08:01:37;100575.47;;;20.29;51.43
56042;BME280;48756;41.374;2.066;2023-05-21T08:04:02;100576.44;;;20.94;49.13
56042;BME280;48756;41.374;2.066;2023-05-21T08:06:34;100570.09;;;20.96;48.72
56042;BME280;48756;41.374;2.066;2023-05-21T08:09:01;100573.44;;;21.00;49.97
56042;BME280;48756;41.374;2.066;2023-05-21T08:11:27;100573.69;;;20.95;49.70
56042;BME280;48756;41.374;2.066;2023-05-21T08:13:52;100576.53;;;21.08;48.59
56042;BME280;48756;41.374;2.066;2023-05-21T08:16:18;100582.22;;;20.69;49.30
56042;BME280;48756;41.374;2.066;2023-05-21T08:18:43;100579.94;;;21.10;49.48
56042;BME280;48756;41.374;2.066;2023-05-21T08:21:09;100577.31;;;21.42;48.91
56042;BME280;48756;41.374;2.066;2023-05-21T08:23:34;100575.06;;;21.50;48.97
56042;BME280;48756;41.374;2.066;2023-05-21T08:26:00;100579.00;;;21.88;48.46
56042;BME280;48756;41.374;2.066;2023-05-21T08:28:25;100571.91;;;21.89;49.15
56042;BME280;48756;41.374;2.066;2023-05-21T08:30:52;100576.91;;;21.79;49.24
56042;BME280;48756;41.374;2.066;2023-05-21T08:33:18;100585.22;;;22.03;48.58
56042;BME280;48756;41.374;2.066;2023-05-21T08:35:44;100582.66;;;22.01;47.83
56042;BME280;48756;41.374;2.066;2023-05-21T08:38:09;100585.56;;;22.13;48.65
56042;BME280;48756;41.374;2.066;2023-05-21T08:40:35;100576.88;;;22.39;47.89
56042;BME280;48756;41.374;2.066;2023-05-21T08:43:03;100578.28;;;22.30;48.17
56042;BME280;48756;41.374;2.066;2023-05-21T08:45:30;100586.03;;;21.89;48.81
56042;BME280;48756;41.374;2.066;2023-05-21T08:48:01;100587.63;;;22.08;48.56
56042;BME280;48756;41.374;2.066;2023-05-21T08:50:27;100585.63;;;21.51;49.84
56042;BME280;48756;41.374;2.066;2023-05-21T08:52:52;100580.28;;;22.27;48.10
56042;BME280;48756;41.374;2.066;2023-05-21T08:55:19;100583.41;;;22.19;48.73
56042;BME280;48756;41.374;2.066;2023-05-21T08:57:45;100583.03;;;22.25;48.50
56042;BME280;48756;41.374;2.066;2023-05-21T09:00:10;100588.94;;;22.45;47.09
56042;BME280;48756;41.374;2.066;2023-05-21T09:02:36;100587.50;;;23.10;47.05
56042;BME280;48756;41.374;2.066;2023-05-21T09:05:04;100588.06;;;23.15;48.54
56042;BME280;48756;41.374;2.066;2023-05-21T09:07:30;100587.25;;;23.28;48.43
56042;BME280;48756;41.374;2.066;2023-05-21T09:10:02;100587.91;;;23.72;47.64
56042;BME280;48756;41.374;2.066;2023-05-21T09:12:27;100583.81;;;23.40;48.32
56042;BME280;48756;41.374;2.066;2023-05-21T09:14:53;100586.78;;;23.76;47.54
56042;BME280;48756;41.374;2.066;2023-05-21T09:17:20;100590.59;;;23.31;46.90
56042;BME280;48756;41.374;2.066;2023-05-21T09:22:47;100587.13;;;23.02;49.49
56042;BME280;48756;41.374;2.066;2023-05-21T09:25:14;100585.31;;;23.58;49.14
56042;BME280;48756;41.374;2.066;2023-05-21T09:27:39;100593.44;;;23.69;50.58
56042;BME280;48756;41.374;2.066;2023-05-21T09:30:09;100586.25;;;23.84;51.52
56042;BME280;48756;41.374;2.066;2023-05-21T09:32:35;100586.69;;;23.91;45.39
56042;BME280;48756;41.374;2.066;2023-05-21T09:37:35;100595.13;;;23.43;48.06
56042;BME280;48756;41.374;2.066;2023-05-21T09:40:04;100591.78;;;23.81;46.67
56042;BME280;48756;41.374;2.066;2023-05-21T09:42:33;100595.41;;;23.39;48.24
56042;BME280;48756;41.374;2.066;2023-05-21T09:44:59;100596.34;;;23.11;44.41
56042;BME280;48756;41.374;2.066;2023-05-21T09:47:25;100595.41;;;22.69;45.74
56042;BME280;48756;41.374;2.066;2023-05-21T09:49:50;100591.88;;;22.97;46.70
56042;BME280;48756;41.374;2.066;2023-05-21T09:52:22;100601.38;;;23.42;44.82
56042;BME280;48756;41.374;2.066;2023-05-21T09:54:48;100591.50;;;23.59;45.12
56042;BME280;48756;41.374;2.066;2023-05-21T09:57:16;100596.25;;;23.93;43.82
56042;BME280;48756;41.374;2.066;2023-05-21T09:59:48;100602.69;;;24.03;41.81
56042;BME280;48756;41.374;2.066;2023-05-21T10:02:16;100589.97;;;24.34;42.54
56042;BME280;48756;41.374;2.066;2023-05-21T10:04:42;100603.50;;;25.31;43.02
56042;BME280;48756;41.374;2.066;2023-05-21T10:07:08;100597.75;;;24.75;42.45
56042;BME280;48756;41.374;2.066;2023-05-21T10:09:33;100588.22;;;24.84;43.23
56042;BME280;48756;41.374;2.066;2023-05-21T10:11:59;100595.06;;;24.37;44.79
56042;BME280;48756;41.374;2.066;2023-05-21T10:14:24;100596.16;;;24.60;44.03
56042;BME280;48756;41.374;2.066;2023-05-21T10:16:53;100602.69;;;24.16;44.12
56042;BME280;48756;41.374;2.066;2023-05-21T10:19:18;100600.50;;;24.35;44.74
56042;BME280;48756;41.374;2.066;2023-05-21T10:21:44;100598.69;;;24.99;42.68
56042;BME280;48756;41.374;2.066;2023-05-21T10:24:10;100596.53;;;25.65;42.84
56042;BME280;48756;41.374;2.066;2023-05-21T10:26:36;100602.13;;;25.62;41.18
56042;BME280;48756;41.374;2.066;2023-05-21T10:29:02;100600.94;;;25.29;42.34
56042;BME280;48756;41.374;2.066;2023-05-21T10:31:28;100596.47;;;25.54;41.92
56042;BME280;48756;41.374;2.066;2023-05-21T10:33:53;100599.22;;;24.79;42.30
56042;BME280;48756;41.374;2.066;2023-05-21T10:36:23;100601.25;;;25.01;41.85
56042;BME280;48756;41.374;2.066;2023-05-21T10:38:50;100596.47;;;25.30;40.59
56042;BME280;48756;41.374;2.066;2023-05-21T10:41:16;100608.75;;;24.45;42.38
56042;BME280;48756;41.374;2.066;2023-05-21T10:43:47;100613.00;;;24.48;42.47
56042;BME280;48756;41.374;2.066;2023-05-21T10:56:08;100608.69;;;24.96;42.11
56042;BME280;48756;41.374;2.066;2023-05-21T11:01:11;100603.88;;;24.88;42.29
56042;BME280;48756;41.374;2.066;2023-05-21T11:03:38;100608.63;;;24.47;42.84
56042;BME280;48756;41.374;2.066;2023-05-21T11:06:03;100609.47;;;24.34;43.26
56042;BME280;48756;41.374;2.066;2023-05-21T11:08:30;100604.44;;;24.93;42.71
56042;BME280;48756;41.374;2.066;2023-05-21T11:10:58;100616.63;;;24.72;42.06
56042;BME280;48756;41.374;2.066;2023-05-21T11:13:24;100607.94;;;25.43;40.97
56042;BME280;48756;41.374;2.066;2023-05-21T11:21:03;100613.06;;;25.10;43.00
56042;BME280;48756;41.374;2.066;2023-05-21T11:26:09;100622.53;;;24.25;45.63
56042;BME280;48756;41.374;2.066;2023-05-21T11:28:34;100612.97;;;24.86;44.43
56042;BME280;48756;41.374;2.066;2023-05-21T11:33:46;100625.97;;;23.60;48.05
56042;BME280;48756;41.374;2.066;2023-05-21T11:36:11;100623.03;;;24.04;47.97
56042;BME280;48756;41.374;2.066;2023-05-21T11:38:37;100614.59;;;24.50;49.00
56042;BME280;48756;41.374;2.066;2023-05-21T11:41:03;100622.44;;;24.26;48.46
56042;BME280;48756;41.374;2.066;2023-05-21T11:43:28;100606.50;;;24.52;48.24
56042;BME280;48756;41.374;2.066;2023-05-21T11:45:54;100608.69;;;24.83;46.65
56042;BME280;48756;41.374;2.066;2023-05-21T11:48:22;100611.91;;;24.37;47.91
56042;BME280;48756;41.374;2.066;2023-05-21T11:50:48;100618.06;;;24.25;49.28
56042;BME280;48756;41.374;2.066;2023-05-21T11:53:14;100612.53;;;24.66;48.17
56042;BME280;48756;41.374;2.066;2023-05-21T11:55:39;100607.03;;;24.69;48.51
56042;BME280;48756;41.374;2.066;2023-05-21T11:58:11;100627.97;;;23.83;49.61
56042;BME280;48756;41.374;2.066;2023-05-21T12:00:38;100612.00;;;24.23;48.90
56042;BME280;48756;41.374;2.066;2023-05-21T12:03:05;100624.44;;;24.23;49.71
56042;BME280;48756;41.374;2.066;2023-05-21T12:05:45;100624.47;;;23.96;50.36
56042;BME280;48756;41.374;2.066;2023-05-21T12:08:10;100631.78;;;23.38;52.29
56042;BME280;48756;41.374;2.066;2023-05-21T12:10:36;100625.81;;;23.35;51.58
56042;BME280;48756;41.374;2.066;2023-05-21T12:13:03;100623.53;;;23.29;52.79
56042;BME280;48756;41.374;2.066;2023-05-21T12:15:29;100635.53;;;23.48;52.43
56042;BME280;48756;41.374;2.066;2023-05-21T12:17:55;100636.38;;;23.77;51.96
56042;BME280;48756;41.374;2.066;2023-05-21T12:20:20;100629.59;;;23.45;52.56
56042;BME280;48756;41.374;2.066;2023-05-21T12:22:49;100633.91;;;23.05;54.46
56042;BME280;48756;41.374;2.066;2023-05-21T12:25:21;100627.75;;;23.04;54.91
56042;BME280;48756;41.374;2.066;2023-05-21T12:27:47;100641.88;;;22.76;55.54
56042;BME280;48756;41.374;2.066;2023-05-21T12:30:14;100640.19;;;23.04;54.96
56042;BME280;48756;41.374;2.066;2023-05-21T12:32:41;100640.38;;;23.15;53.81
56042;BME280;48756;41.374;2.066;2023-05-21T12:35:08;100638.56;;;23.15;53.07
56042;BME280;48756;41.374;2.066;2023-05-21T12:37:33;100645.22;;;23.49;52.88
56042;BME280;48756;41.374;2.066;2023-05-21T12:40:01;100640.81;;;23.36;54.08
56042;BME280;48756;41.374;2.066;2023-05-21T12:42:30;100642.28;;;23.13;54.77
56042;BME280;48756;41.374;2.066;2023-05-21T12:44:56;100644.94;;;22.99;54.96
56042;BME280;48756;41.374;2.066;2023-05-21T12:47:22;100641.31;;;23.00;55.52
56042;BME280;48756;41.374;2.066;2023-05-21T12:49:48;100646.75;;;22.98;56.74
56042;BME280;48756;41.374;2.066;2023-05-21T12:52:15;100651.78;;;22.88;56.04
56042;BME280;48756;41.374;2.066;2023-05-21T12:54:43;100652.00;;;22.55;57.31
56042;BME280;48756;41.374;2.066;2023-05-21T12:57:10;100644.88;;;22.86;56.18
56042;BME280;48756;41.374;2.066;2023-05-21T12:59:44;100650.84;;;22.89;56.50
56042;BME280;48756;41.374;2.066;2023-05-21T13:02:14;100654.09;;;22.50;57.64
56042;BME280;48756;41.374;2.066;2023-05-21T13:04:40;100647.69;;;23.11;56.59
56042;BME280;48756;41.374;2.066;2023-05-21T13:07:06;100647.13;;;22.92;55.35
56042;BME280;48756;41.374;2.066;2023-05-21T13:09:31;100645.50;;;23.04;55.55
56042;BME280;48756;41.374;2.066;2023-05-21T13:11:57;100640.84;;;23.21;54.85
56042;BME280;48756;41.374;2.066;2023-05-21T13:14:22;100650.50;;;23.22;54.79
56042;BME280;48756;41.374;2.066;2023-05-21T13:16:47;100644.13;;;23.39;54.58